createdAt,value
2022-08-31T00:00:38.864Z,11.40
2022-08-31T00:03:27.624Z,10.90
2022-08-31T00:06:02.087Z,9.80
2022-08-31T00:08:31.823Z,9.50
2022-08-31T00:11:01.020Z,10.50
2022-08-31T00:13:29.902Z,10.30
2022-08-31T00:15:58.612Z,10.40
2022-08-31T00:18:26.795Z,10.70
2022-08-31T00:20:55.256Z,10.00
2022-08-31T00:23:23.633Z,10.60
2022-08-31T00:25:52.228Z,10.70
2022-08-31T00:28:20.707Z,10.30
2022-08-31T00:30:49.887Z,11.10
2022-08-31T00:33:18.361Z,10.60
2022-08-31T00:35:46.907Z,10.30
2022-08-31T00:38:15.743Z,11.50
2022-08-31T00:40:47.564Z,10.40
2022-08-31T00:43:54.574Z,10.80
2022-08-31T00:46:27.553Z,10.40
2022-08-31T00:49:04.497Z,10.50
2022-08-31T00:51:41.884Z,9.60
2022-08-31T00:54:12.664Z,9.80
2022-08-31T00:56:44.285Z,9.70
2022-08-31T00:59:16.465Z,9.70
2022-08-31T01:01:45.090Z,9.40
2022-08-31T01:04:13.364Z,8.80
2022-08-31T01:06:42.557Z,9.40
2022-08-31T01:09:13.134Z,9.30
2022-08-31T01:11:42.613Z,9.10
2022-08-31T01:14:12.034Z,8.90
2022-08-31T01:16:49.943Z,10.10
2022-08-31T01:19:37.924Z,9.10
2022-08-31T01:22:44.643Z,9.30
2022-08-31T01:25:14.203Z,8.60
2022-08-31T01:27:42.688Z,9.10
2022-08-31T01:30:20.120Z,9.20
2022-08-31T01:32:48.928Z,10.10
2022-08-31T01:35:17.462Z,10.30
2022-08-31T01:37:45.745Z,10.70
2022-08-31T01:40:16.887Z,10.40
2022-08-31T01:42:48.881Z,10.10
2022-08-31T01:45:17.579Z,10.80
2022-08-31T01:47:45.769Z,11.50
2022-08-31T01:50:14.231Z,11.00
2022-08-31T01:52:42.458Z,10.80
2022-08-31T01:55:11.153Z,10.80
2022-08-31T01:57:39.360Z,11.20
2022-08-31T02:00:54.317Z,11.00
2022-08-31T02:03:22.563Z,11.00
2022-08-31T02:05:50.751Z,11.40
2022-08-31T02:08:19.253Z,11.30
2022-08-31T02:10:47.837Z,11.80
2022-08-31T02:13:16.408Z,11.70
2022-08-31T02:15:44.895Z,11.80
2022-08-31T02:18:13.132Z,12.90
2022-08-31T02:20:41.824Z,13.90
2022-08-31T02:23:10.093Z,12.20
2022-08-31T02:25:38.381Z,10.90
2022-08-31T02:28:07.167Z,10.50
2022-08-31T02:30:35.838Z,9.40
2022-08-31T02:33:04.583Z,8.10
2022-08-31T02:35:33.091Z,8.00
2022-08-31T02:38:01.884Z,7.90
2022-08-31T02:40:31.876Z,8.90
2022-08-31T02:43:00.151Z,7.90
2022-08-31T02:45:28.332Z,8.30
2022-08-31T02:48:04.391Z,8.30
2022-08-31T02:50:48.940Z,7.60
2022-08-31T02:53:21.224Z,7.80
2022-08-31T02:55:50.196Z,7.30
2022-08-31T02:58:23.320Z,7.30
2022-08-31T03:00:53.135Z,8.70
2022-08-31T03:03:22.032Z,8.10
2022-08-31T03:05:50.839Z,8.40
2022-08-31T03:08:19.073Z,9.70
2022-08-31T03:10:48.940Z,9.30
2022-08-31T03:13:18.720Z,9.20
2022-08-31T03:15:47.494Z,9.70
2022-08-31T03:18:17.562Z,10.20
2022-08-31T03:20:45.806Z,8.90
2022-08-31T03:23:15.458Z,10.00
2022-08-31T03:25:43.810Z,9.70
2022-08-31T03:28:12.709Z,9.10
2022-08-31T03:30:42.751Z,9.10
2022-08-31T03:33:12.784Z,9.90
2022-08-31T03:35:44.935Z,9.20
2022-08-31T03:38:14.221Z,10.30
2022-08-31T03:40:44.465Z,10.20
2022-08-31T03:43:14.255Z,11.30
2022-08-31T03:45:44.115Z,9.90
2022-08-31T03:48:13.276Z,10.30
2022-08-31T03:50:43.952Z,10.20
2022-08-31T03:53:22.423Z,10.40
2022-08-31T03:55:52.348Z,9.30
2022-08-31T03:58:20.511Z,9.50
2022-08-31T04:00:49.193Z,9.60
2022-08-31T04:03:30.803Z,9.70
2022-08-31T04:06:17.269Z,9.90
2022-08-31T04:09:39.201Z,9.80
2022-08-31T04:12:48.052Z,7.20
2022-08-31T04:15:37.771Z,6.80
2022-08-31T04:18:37.129Z,7.30
2022-08-31T04:21:12.665Z,6.80
2022-08-31T04:23:41.322Z,6.10
2022-08-31T04:26:27.556Z,5.80
2022-08-31T04:28:56.822Z,6.10
2022-08-31T04:31:27.091Z,6.50
2022-08-31T04:33:56.904Z,6.90
2022-08-31T04:36:27.993Z,6.20
2022-08-31T04:39:00.187Z,6.70
2022-08-31T04:41:30.895Z,8.50
2022-08-31T04:44:01.321Z,6.60
2022-08-31T04:46:36.186Z,6.70
2022-08-31T04:49:05.279Z,7.80
2022-08-31T04:51:35.638Z,7.30
2022-08-31T04:54:08.863Z,6.80
2022-08-31T04:56:44.937Z,6.70
2022-08-31T04:59:18.993Z,6.40
2022-08-31T05:02:06.602Z,7.30
2022-08-31T05:04:45.448Z,8.10
2022-08-31T05:07:13.831Z,7.00
2022-08-31T05:09:42.125Z,7.30
2022-08-31T05:12:10.377Z,6.80
2022-08-31T05:14:39.448Z,7.20
2022-08-31T05:17:16.784Z,7.70
2022-08-31T05:19:45.138Z,6.70
2022-08-31T05:22:15.149Z,7.20
2022-08-31T05:24:45.500Z,7.70
2022-08-31T05:27:14.043Z,8.20
2022-08-31T05:29:42.465Z,9.20
2022-08-31T05:32:53.340Z,10.80
2022-08-31T05:35:21.547Z,11.40
2022-08-31T05:37:51.103Z,11.10
2022-08-31T05:40:20.444Z,11.30
2022-08-31T05:42:48.648Z,10.50
2022-08-31T05:45:18.947Z,11.40
2022-08-31T05:47:48.093Z,11.90
2022-08-31T05:50:18.578Z,12.30
2022-08-31T05:52:47.185Z,14.50
2022-08-31T05:55:15.761Z,14.00
2022-08-31T05:57:44.006Z,14.50
2022-08-31T06:00:12.756Z,15.60
2022-08-31T06:02:45.345Z,16.20
2022-08-31T06:05:15.137Z,14.00
2022-08-31T06:07:45.857Z,14.90
2022-08-31T06:10:15.987Z,14.60
2022-08-31T06:12:47.398Z,15.10
2022-08-31T06:15:16.390Z,15.00
2022-08-31T06:17:45.245Z,15.50
2022-08-31T06:20:17.800Z,15.20
2022-08-31T06:22:47.998Z,16.70
2022-08-31T06:25:26.070Z,14.20
2022-08-31T06:27:56.606Z,15.10
2022-08-31T06:30:27.461Z,15.00
2022-08-31T06:32:58.683Z,15.20
2022-08-31T06:35:33.972Z,15.40
2022-08-31T06:38:46.220Z,15.50
2022-08-31T06:41:56.208Z,15.10
2022-08-31T06:44:38.721Z,14.10
2022-08-31T06:47:10.171Z,13.40
2022-08-31T06:49:41.516Z,13.40
2022-08-31T06:52:09.840Z,13.50
2022-08-31T06:54:40.905Z,13.60
2022-08-31T06:57:27.676Z,15.20
2022-08-31T07:00:59.319Z,15.70
2022-08-31T07:04:11.956Z,18.10
2022-08-31T07:06:44.448Z,19.50
2022-08-31T07:09:17.910Z,20.10
2022-08-31T07:11:51.310Z,20.90
2022-08-31T07:14:23.723Z,20.20
2022-08-31T07:16:56.662Z,18.90
2022-08-31T07:19:26.218Z,18.10
2022-08-31T07:21:59.608Z,17.80
2022-08-31T07:24:33.376Z,17.30
2022-08-31T07:27:10.234Z,18.20
2022-08-31T07:29:48.427Z,15.50
2022-08-31T07:32:17.566Z,14.30
2022-08-31T07:34:46.393Z,15.80
2022-08-31T07:37:43.256Z,13.30
2022-08-31T07:40:30.582Z,15.40
2022-08-31T07:43:04.646Z,17.10
2022-08-31T07:45:37.812Z,15.90
2022-08-31T07:48:08.482Z,13.80
2022-08-31T07:50:56.551Z,11.90
2022-08-31T07:53:47.542Z,12.10
2022-08-31T07:56:27.221Z,12.20
2022-08-31T07:59:11.420Z,12.40
2022-08-31T08:01:43.409Z,10.60
2022-08-31T08:04:15.925Z,11.50
2022-08-31T08:07:37.339Z,10.00
2022-08-31T08:10:24.344Z,13.20
2022-08-31T08:13:28.294Z,11.90
2022-08-31T08:16:07.466Z,14.10
2022-08-31T08:18:50.657Z,11.30
2022-08-31T08:21:22.586Z,11.60
2022-08-31T08:23:52.033Z,10.50
2022-08-31T08:26:35.573Z,10.70
2022-08-31T08:29:09.232Z,12.70
2022-08-31T08:31:43.539Z,12.50
2022-08-31T08:34:11.890Z,11.00
2022-08-31T08:36:40.918Z,9.90
2022-08-31T08:39:12.990Z,10.60
2022-08-31T08:41:45.627Z,11.30
2022-08-31T08:44:18.146Z,10.20
2022-08-31T08:46:58.556Z,10.80
2022-08-31T08:49:54.218Z,10.90
2022-08-31T08:52:43.517Z,11.40
2022-08-31T08:55:18.319Z,9.60
2022-08-31T08:57:52.195Z,10.60
2022-08-31T09:00:28.593Z,12.30
2022-08-31T09:03:12.163Z,14.10
2022-08-31T09:06:09.551Z,11.00
2022-08-31T09:09:08.350Z,11.30
2022-08-31T09:12:36.204Z,10.50
2022-08-31T09:15:26.803Z,10.00
2022-08-31T09:18:08.432Z,11.40
2022-08-31T09:20:36.864Z,11.10
2022-08-31T09:23:08.031Z,12.70
2022-08-31T09:25:52.581Z,9.90
2022-08-31T09:28:47.385Z,13.20
2022-08-31T09:31:39.759Z,11.70
2022-08-31T09:34:37.259Z,9.60
2022-08-31T09:37:19.433Z,10.60
2022-08-31T09:39:50.674Z,9.90
2022-08-31T09:42:33.879Z,8.90
2022-08-31T09:45:37.815Z,13.70
2022-08-31T09:48:09.925Z,9.90
2022-08-31T09:50:45.480Z,9.90
2022-08-31T09:53:46.147Z,11.70
2022-08-31T09:56:20.871Z,9.90
2022-08-31T09:58:50.477Z,9.50
2022-08-31T10:01:31.929Z,9.30
2022-08-31T10:04:23.509Z,10.00
2022-08-31T10:07:31.754Z,9.80
2022-08-31T10:10:14.720Z,10.20
2022-08-31T10:13:10.511Z,10.20
2022-08-31T10:15:54.439Z,10.80
2022-08-31T10:18:33.531Z,9.20
2022-08-31T10:21:21.436Z,9.20
2022-08-31T10:24:06.221Z,10.30
2022-08-31T10:26:46.573Z,8.70
2022-08-31T10:29:40.644Z,9.10
2022-08-31T10:32:52.560Z,8.50
2022-08-31T10:35:37.516Z,10.00
2022-08-31T10:38:26.504Z,8.50
2022-08-31T10:41:11.756Z,8.00
2022-08-31T10:43:46.073Z,8.30
2022-08-31T10:46:15.775Z,9.60
2022-08-31T10:48:47.220Z,8.80
2022-08-31T10:51:40.263Z,8.70
2022-08-31T10:54:54.766Z,8.80
2022-08-31T10:57:53.124Z,9.20
2022-08-31T11:00:41.663Z,9.40
2022-08-31T11:03:35.690Z,10.40
2022-08-31T11:06:28.312Z,10.70
2022-08-31T11:09:33.348Z,9.90
2022-08-31T11:12:21.717Z,9.70
2022-08-31T11:15:44.122Z,9.20
2022-08-31T11:18:40.441Z,9.80
2022-08-31T11:21:39.165Z,9.70
2022-08-31T11:25:03.480Z,9.30
2022-08-31T11:27:44.529Z,10.40
2022-08-31T11:30:42.254Z,10.70
2022-08-31T11:33:20.322Z,9.30
2022-08-31T11:36:05.398Z,9.80
2022-08-31T11:38:40.305Z,9.30
2022-08-31T11:41:12.062Z,9.00
2022-08-31T11:43:47.022Z,8.60
2022-08-31T11:46:26.711Z,9.30
2022-08-31T11:48:55.460Z,8.30
2022-08-31T11:51:45.548Z,9.50
2022-08-31T11:54:27.088Z,8.90
2022-08-31T11:56:57.044Z,8.10
2022-08-31T11:59:34.105Z,8.30
2022-08-31T12:02:23.207Z,8.10
2022-08-31T12:05:03.296Z,7.80
2022-08-31T12:07:45.424Z,6.80
2022-08-31T12:10:42.473Z,6.40
2022-08-31T12:13:36.519Z,6.40
2022-08-31T12:16:31.323Z,5.80
2022-08-31T12:19:34.371Z,6.00
2022-08-31T12:22:44.681Z,6.00
2022-08-31T12:25:26.355Z,6.00
2022-08-31T12:28:35.613Z,5.90
2022-08-31T12:31:14.271Z,6.30
2022-08-31T12:33:59.505Z,6.90
2022-08-31T12:36:31.265Z,6.10
2022-08-31T12:39:26.043Z,6.10
2022-08-31T12:42:04.667Z,5.80
2022-08-31T12:44:51.122Z,5.70
2022-08-31T12:47:38.500Z,6.00
2022-08-31T12:51:07.893Z,5.30
2022-08-31T12:54:00.459Z,5.50
2022-08-31T12:57:26.967Z,5.70
2022-08-31T13:00:08.043Z,5.40
2022-08-31T13:02:46.194Z,4.70
2022-08-31T13:05:33.234Z,5.30
2022-08-31T13:08:01.999Z,5.20
2022-08-31T13:10:35.503Z,5.30
2022-08-31T13:13:10.468Z,5.10
2022-08-31T13:15:43.715Z,5.60
2022-08-31T13:18:22.691Z,5.30
2022-08-31T13:21:06.026Z,5.00
2022-08-31T13:23:44.881Z,5.10
2022-08-31T13:26:21.127Z,4.90
2022-08-31T13:28:58.726Z,5.20
2022-08-31T13:31:31.622Z,5.10
2022-08-31T13:34:07.292Z,4.80
2022-08-31T13:37:03.175Z,5.20
2022-08-31T13:39:39.259Z,5.00
2022-08-31T13:42:20.220Z,4.80
2022-08-31T13:44:56.965Z,5.40
2022-08-31T13:47:45.825Z,5.40
2022-08-31T13:50:30.871Z,5.40
2022-08-31T13:53:25.864Z,5.00
2022-08-31T13:55:52.548Z,4.70
2022-08-31T13:58:32.101Z,5.40
2022-08-31T14:01:26.558Z,6.00
2022-08-31T14:03:59.096Z,5.30
2022-08-31T14:06:38.951Z,5.40
2022-08-31T14:09:18.821Z,5.60
2022-08-31T14:11:54.025Z,5.40
2022-08-31T14:14:39.878Z,5.70
2022-08-31T14:17:16.492Z,5.00
2022-08-31T14:19:45.677Z,5.20
2022-08-31T14:22:30.102Z,5.50
2022-08-31T14:25:00.842Z,5.10
2022-08-31T14:27:30.156Z,4.80
2022-08-31T14:29:58.554Z,5.50
2022-08-31T14:32:29.416Z,5.40
2022-08-31T14:34:59.204Z,5.10
2022-08-31T14:37:30.267Z,5.00
2022-08-31T14:40:04.301Z,5.00
2022-08-31T14:42:39.058Z,5.50
2022-08-31T14:45:18.668Z,4.60
2022-08-31T14:47:52.306Z,4.80
2022-08-31T14:50:25.556Z,4.50
2022-08-31T14:52:55.309Z,4.30
2022-08-31T14:55:26.952Z,4.70
2022-08-31T14:58:03.809Z,4.80
2022-08-31T15:00:33.950Z,4.80
2022-08-31T15:03:02.585Z,4.50
2022-08-31T15:05:32.420Z,4.20
2022-08-31T15:08:01.170Z,4.00
2022-08-31T15:10:29.416Z,4.20
2022-08-31T15:12:58.563Z,4.70
2022-08-31T15:15:26.815Z,4.40
2022-08-31T15:17:56.875Z,4.60
2022-08-31T15:20:25.149Z,4.50
2022-08-31T15:22:53.428Z,4.20
2022-08-31T15:25:25.088Z,4.30
2022-08-31T15:27:53.425Z,5.50
2022-08-31T15:30:23.152Z,4.20
2022-08-31T15:32:53.251Z,4.10
2022-08-31T15:35:26.576Z,3.80
2022-08-31T15:38:01.230Z,4.10
2022-08-31T15:40:38.598Z,3.70
2022-08-31T15:43:11.576Z,4.30
2022-08-31T15:45:39.923Z,4.20
2022-08-31T15:48:26.863Z,3.80
2022-08-31T15:51:00.768Z,4.00
2022-08-31T15:53:30.857Z,4.00
2022-08-31T15:56:06.332Z,3.90
2022-08-31T15:58:39.067Z,3.80
2022-08-31T16:03:51.362Z,4.40
2022-08-31T16:06:32.646Z,4.10
2022-08-31T16:09:02.708Z,3.60
2022-08-31T16:11:37.214Z,3.90
2022-08-31T16:14:10.873Z,4.60
2022-08-31T16:16:42.540Z,3.90
2022-08-31T16:19:27.803Z,4.00
2022-08-31T16:22:03.075Z,4.80
2022-08-31T16:24:36.071Z,3.90
2022-08-31T16:27:12.019Z,4.60
2022-08-31T16:29:41.444Z,4.60
2022-08-31T16:32:10.024Z,4.70
2022-08-31T16:34:40.168Z,4.60
2022-08-31T16:37:08.892Z,4.50
2022-08-31T16:39:43.984Z,4.10
2022-08-31T16:42:13.168Z,4.60
2022-08-31T16:44:46.999Z,4.30
2022-08-31T16:47:18.806Z,4.60
2022-08-31T16:49:47.699Z,3.70
2022-08-31T16:52:26.798Z,4.10
2022-08-31T16:54:57.401Z,5.30
2022-08-31T16:57:29.652Z,4.10
2022-08-31T16:59:59.346Z,4.90
2022-08-31T17:02:28.010Z,4.60
2022-08-31T17:05:00.735Z,5.10
2022-08-31T17:07:29.164Z,5.70
2022-08-31T17:10:04.073Z,5.60
2022-08-31T17:12:32.856Z,5.10
2022-08-31T17:15:04.268Z,4.70
2022-08-31T17:17:33.099Z,5.30
2022-08-31T17:20:01.427Z,5.30
2022-08-31T17:22:33.630Z,5.00
2022-08-31T17:25:04.726Z,5.00
2022-08-31T17:27:34.857Z,4.50
2022-08-31T17:30:07.026Z,5.50
2022-08-31T17:32:39.264Z,5.00
2022-08-31T17:35:19.124Z,5.10
2022-08-31T17:37:50.035Z,5.70
2022-08-31T17:40:18.654Z,6.00
2022-08-31T17:42:48.573Z,5.60
2022-08-31T17:45:17.708Z,5.50
2022-08-31T17:47:46.008Z,5.80
2022-08-31T17:50:17.230Z,5.20
2022-08-31T17:52:47.535Z,5.00
2022-08-31T17:55:16.077Z,5.60
2022-08-31T17:57:45.136Z,4.80
2022-08-31T18:00:16.867Z,5.70
2022-08-31T18:02:46.134Z,5.40
2022-08-31T18:05:16.363Z,6.30
2022-08-31T18:07:44.722Z,5.60
2022-08-31T18:10:13.045Z,6.40
2022-08-31T18:12:42.264Z,5.60
2022-08-31T18:15:12.734Z,5.00
2022-08-31T18:17:41.032Z,4.40
2022-08-31T18:20:12.519Z,4.30
2022-08-31T18:22:40.870Z,4.30
2022-08-31T18:25:10.668Z,3.60
2022-08-31T18:27:38.982Z,3.70
2022-08-31T18:30:09.892Z,4.30
2022-08-31T18:32:38.118Z,5.10
2022-08-31T18:35:14.306Z,4.10
2022-08-31T18:37:42.661Z,4.20
2022-08-31T18:40:29.573Z,4.10
2022-08-31T18:43:16.888Z,4.20
2022-08-31T18:45:50.142Z,3.80
2022-08-31T18:48:25.245Z,3.30
2022-08-31T18:50:58.979Z,3.30
2022-08-31T18:53:30.310Z,4.00
2022-08-31T18:56:09.040Z,3.80
2022-08-31T18:58:38.435Z,4.10
2022-08-31T19:01:10.434Z,4.20
2022-08-31T19:03:41.027Z,3.40
2022-08-31T19:06:19.908Z,3.90
2022-08-31T19:08:49.060Z,4.10
2022-08-31T19:11:21.527Z,3.80
2022-08-31T19:13:51.513Z,4.10
2022-08-31T19:16:28.098Z,4.60
2022-08-31T19:18:58.597Z,4.10
2022-08-31T19:21:34.315Z,4.30
2022-08-31T19:24:07.378Z,4.00
2022-08-31T19:26:53.488Z,4.20
2022-08-31T19:29:26.660Z,3.80
2022-08-31T19:31:57.527Z,4.70
2022-08-31T19:34:32.959Z,3.90
2022-08-31T19:37:01.999Z,4.80
2022-08-31T19:39:37.027Z,5.10
2022-08-31T19:42:08.143Z,5.30
2022-08-31T19:44:55.002Z,5.70
2022-08-31T19:47:26.564Z,5.20
2022-08-31T19:49:55.241Z,6.30
2022-08-31T19:52:24.447Z,6.20
2022-08-31T19:54:52.737Z,6.00
2022-08-31T19:57:22.537Z,6.70
2022-08-31T19:59:50.916Z,6.30
2022-08-31T20:02:19.273Z,8.10
2022-08-31T20:04:47.683Z,6.70
2022-08-31T20:07:17.193Z,7.90
2022-08-31T20:09:45.955Z,8.80
2022-08-31T20:12:14.302Z,8.40
2022-08-31T20:14:44.678Z,9.90
2022-08-31T20:17:13.169Z,9.80
2022-08-31T20:19:42.242Z,10.60
2022-08-31T20:22:10.654Z,9.50
2022-08-31T20:24:43.894Z,9.30
2022-08-31T20:27:18.798Z,9.80
2022-08-31T20:29:48.336Z,11.90
2022-08-31T20:32:16.771Z,9.50
2022-08-31T20:34:45.041Z,9.20
2022-08-31T20:37:13.350Z,9.50
2022-08-31T20:39:42.294Z,9.70
2022-08-31T20:42:10.730Z,9.40
2022-08-31T20:44:39.459Z,8.80
2022-08-31T20:47:29.210Z,8.50
2022-08-31T20:50:03.637Z,9.20
2022-08-31T20:52:35.162Z,8.20
2022-08-31T20:55:05.994Z,7.60
2022-08-31T20:57:39.872Z,7.40
2022-08-31T21:00:10.719Z,6.80
2022-08-31T21:02:42.320Z,7.20
2022-08-31T21:05:38.025Z,6.50
2022-08-31T21:08:00.278Z,5.70
2022-08-31T21:10:36.978Z,5.50
2022-08-31T21:13:12.875Z,5.10
2022-08-31T21:15:45.417Z,5.20
2022-08-31T21:18:19.212Z,5.50
2022-08-31T21:20:48.524Z,5.80
2022-08-31T21:23:16.844Z,5.90
2022-08-31T21:25:46.733Z,5.60
2022-08-31T21:28:18.059Z,5.70
2022-08-31T21:30:49.741Z,6.10
2022-08-31T21:33:19.339Z,5.30
2022-08-31T21:35:47.941Z,5.80
2022-08-31T21:38:18.336Z,6.10
2022-08-31T21:40:50.797Z,5.60
2022-08-31T21:43:19.821Z,5.50
2022-08-31T21:45:50.254Z,5.20
2022-08-31T21:48:25.885Z,5.80
2022-08-31T21:50:55.727Z,5.00
2022-08-31T21:53:27.193Z,5.50
2022-08-31T21:55:55.397Z,5.20
2022-08-31T21:58:23.681Z,5.20
2022-08-31T22:00:52.638Z,5.40
2022-08-31T22:03:22.494Z,6.30
2022-08-31T22:05:50.733Z,5.60
2022-08-31T22:08:20.373Z,5.60
2022-08-31T22:10:49.128Z,5.00
2022-08-31T22:13:17.564Z,5.60
2022-08-31T22:15:47.963Z,5.90
2022-08-31T22:21:05.868Z,6.10
2022-08-31T22:23:35.783Z,5.90
2022-08-31T22:26:04.056Z,6.20
2022-08-31T22:28:32.229Z,6.30
2022-08-31T22:31:02.135Z,6.50
2022-08-31T22:33:30.521Z,6.20
2022-08-31T22:35:58.688Z,6.50
2022-08-31T22:38:27.528Z,6.80
2022-08-31T22:40:56.157Z,6.30
2022-08-31T22:43:24.457Z,6.40
2022-08-31T22:45:53.119Z,6.30
2022-08-31T22:48:21.495Z,6.70
2022-08-31T22:50:49.940Z,7.40
2022-08-31T22:53:18.112Z,7.10
2022-08-31T22:55:46.423Z,7.00
2022-08-31T22:58:14.576Z,7.50
2022-08-31T23:00:46.295Z,7.80
2022-08-31T23:03:15.916Z,8.00
2022-08-31T23:05:44.154Z,7.30
2022-08-31T23:08:14.055Z,7.70
2022-08-31T23:10:42.766Z,8.00
2022-08-31T23:13:10.984Z,7.40
2022-08-31T23:15:40.158Z,7.20
2022-08-31T23:18:10.081Z,8.50
2022-08-31T23:20:38.962Z,8.40
2022-08-31T23:23:07.209Z,7.60
2022-08-31T23:25:36.047Z,8.60
2022-08-31T23:28:04.606Z,8.70
2022-08-31T23:30:32.753Z,7.70
2022-08-31T23:33:02.350Z,8.00
2022-08-31T23:35:30.987Z,7.20
2022-08-31T23:38:00.791Z,6.90
2022-08-31T23:40:31.146Z,7.80
2022-08-31T23:43:00.612Z,8.80
2022-08-31T23:45:28.816Z,7.50
2022-08-31T23:47:57.899Z,7.50
2022-08-31T23:50:26.141Z,7.30
2022-08-31T23:52:54.328Z,7.10
2022-08-31T23:55:28.364Z,6.40
2022-08-31T23:57:58.467Z,7.10
